Rechercher aéroport 
image banner adimage banner adimage banner ad
image banner ad

CA92 - Paradise Skypark

Situé à Paradise, United States

ICAO - CA92, IATA -

Données fournies par Airmate  

Information générale

Coordonnées: N39°42'38" W121°36'59"
Élévation : 1300 feet MSL.
Variation magnétique : 17° East
Voir autres Aéroports à California

Données opérationnelles

Special qualification required
Heure actuelle UTC:
Heure actuelle locale:
Météo à : KCIC - Chico Muni ( 23 km )
METAR: KCIC 262347Z 14012KT 25SM VIRGA SCT150 BKN200 28/08 A2982 RMK VIRGA ALQDS FU DSNT E
Voir NOTAMs / SUP AIP / TFR affectant cet aéroport [VIEW]
Fréquences de communication: [VIEW]

Pistes:

Identifiant RWYQFULongueur (ft)Largeur (ft)SurfaceLDA (ft)
17181°301760ASPH
35301760ASPH

Coordonnées de l'aéroport

Adresse: Paradise United States

Vue satellite de CA92